createdAt,value
2023-01-17T00:01:22.927Z,1.80
2023-01-17T00:03:49.446Z,1.73
2023-01-17T00:06:16.027Z,1.75
2023-01-17T00:08:42.562Z,1.48
2023-01-17T00:11:09.281Z,0.60
2023-01-17T00:13:35.829Z,2.05
2023-01-17T00:16:03.851Z,1.65
2023-01-17T00:18:30.422Z,2.15
2023-01-17T00:20:56.968Z,1.90
2023-01-17T00:23:25.663Z,1.10
2023-01-17T00:25:52.893Z,1.70
2023-01-17T00:28:19.441Z,2.42
2023-01-17T00:30:46.405Z,2.72
2023-01-17T00:33:14.377Z,2.53
2023-01-17T00:35:41.351Z,2.60
2023-01-17T00:38:10.493Z,1.98
2023-01-17T00:40:39.145Z,3.22
2023-01-17T00:43:06.638Z,2.55
2023-01-17T00:45:33.192Z,4.00
2023-01-17T00:47:59.864Z,2.42
2023-01-17T00:50:27.810Z,3.35
2023-01-17T00:52:54.467Z,2.05
2023-01-17T00:55:20.972Z,3.67
2023-01-17T00:57:47.565Z,4.30
2023-01-17T01:00:14.767Z,3.20
2023-01-17T01:02:41.569Z,1.75
2023-01-17T01:05:08.418Z,3.88
2023-01-17T01:07:36.336Z,2.85
2023-01-17T01:10:03.227Z,3.88
2023-01-17T01:12:29.784Z,4.47
2023-01-17T01:14:56.303Z,2.22
2023-01-17T01:17:22.835Z,3.75
2023-01-17T01:19:49.389Z,1.38
2023-01-17T01:22:16.070Z,4.65
2023-01-17T01:24:43.926Z,1.80
2023-01-17T01:27:10.518Z,2.17
2023-01-17T01:29:37.032Z,1.35
2023-01-17T01:32:03.829Z,2.65
2023-01-17T01:34:30.378Z,2.17
2023-01-17T01:36:56.899Z,2.63
2023-01-17T01:39:23.504Z,0.95
2023-01-17T01:41:51.778Z,3.05
2023-01-17T01:44:42.676Z,2.45
2023-01-17T01:47:12.157Z,5.40
2023-01-17T01:49:38.764Z,2.80
2023-01-17T01:52:08.183Z,1.40
2023-01-17T01:54:39.183Z,1.48
2023-01-17T01:57:09.863Z,3.83
2023-01-17T01:59:40.575Z,4.68
2023-01-17T02:02:07.808Z,2.10
2023-01-17T02:04:35.332Z,1.40
2023-01-17T02:07:05.579Z,1.05
2023-01-17T02:09:32.134Z,4.07
2023-01-17T02:11:58.966Z,2.22
2023-01-17T02:14:27.007Z,1.25
2023-01-17T02:17:05.850Z,1.67
2023-01-17T02:19:54.790Z,3.28
2023-01-17T02:22:47.572Z,2.15
2023-01-17T02:25:41.222Z,1.83
2023-01-17T02:28:28.156Z,1.50
2023-01-17T02:31:02.415Z,2.85
2023-01-17T02:33:36.200Z,5.15
2023-01-17T02:36:11.160Z,2.72
2023-01-17T02:38:44.646Z,1.67
2023-01-17T02:41:16.336Z,3.70
2023-01-17T02:43:43.233Z,1.85
2023-01-17T02:46:11.332Z,4.13
2023-01-17T02:48:38.811Z,4.07
2023-01-17T02:51:27.012Z,3.53
2023-01-17T02:54:10.770Z,3.75
2023-01-17T02:56:48.431Z,5.53
2023-01-17T02:59:27.228Z,4.68
2023-01-17T03:02:07.098Z,5.35
2023-01-17T03:04:39.250Z,6.68
2023-01-17T03:07:11.095Z,2.97
2023-01-17T03:09:38.944Z,2.78
2023-01-17T03:12:06.277Z,3.15
2023-01-17T03:14:32.860Z,3.55
2023-01-17T03:17:00.788Z,3.10
2023-01-17T03:19:27.428Z,4.57
2023-01-17T03:21:54.170Z,4.93
2023-01-17T03:24:21.018Z,7.75
2023-01-17T03:26:47.772Z,5.40
2023-01-17T03:29:15.031Z,4.28
2023-01-17T03:31:41.600Z,4.25
2023-01-17T03:34:09.523Z,3.58
2023-01-17T03:36:36.240Z,4.32
2023-01-17T03:39:02.858Z,6.07
2023-01-17T03:41:29.526Z,4.10
2023-01-17T03:43:56.110Z,3.80
2023-01-17T03:46:24.643Z,5.93
2023-01-17T03:48:51.569Z,6.13
2023-01-17T03:51:20.202Z,5.50
2023-01-17T03:53:47.108Z,6.35
2023-01-17T03:56:14.220Z,4.43
2023-01-17T03:58:41.679Z,5.38
2023-01-17T04:01:08.720Z,5.35
2023-01-17T04:03:35.589Z,3.35
2023-01-17T04:06:02.155Z,3.60
2023-01-17T04:08:30.208Z,6.82
2023-01-17T04:10:56.786Z,6.70
2023-01-17T04:13:23.651Z,4.28
2023-01-17T04:15:51.106Z,6.07
2023-01-17T04:18:20.205Z,5.57
2023-01-17T04:20:47.226Z,3.47
2023-01-17T04:23:13.961Z,3.88
2023-01-17T04:25:41.914Z,3.67
2023-01-17T04:28:10.120Z,8.88
2023-01-17T04:30:37.094Z,7.82
2023-01-17T04:33:05.220Z,3.38
2023-01-17T04:35:32.479Z,9.52
2023-01-17T04:37:59.186Z,10.23
2023-01-17T04:40:25.857Z,4.05
2023-01-17T04:42:53.789Z,6.55
2023-01-17T04:45:20.352Z,5.78
2023-01-17T04:47:46.945Z,6.32
2023-01-17T04:50:13.872Z,5.80
2023-01-17T04:52:40.537Z,6.32
2023-01-17T04:55:07.910Z,3.95
2023-01-17T04:57:34.593Z,5.57
2023-01-17T05:00:02.748Z,7.20
2023-01-17T05:02:29.436Z,5.43
2023-01-17T05:04:55.966Z,6.85
2023-01-17T05:07:22.636Z,7.43
2023-01-17T05:09:49.148Z,6.75
2023-01-17T05:12:15.842Z,4.25
2023-01-17T05:14:42.420Z,4.57
2023-01-17T05:17:10.692Z,6.05
2023-01-17T05:19:37.278Z,4.80
2023-01-17T05:22:04.303Z,4.43
2023-01-17T05:24:30.953Z,4.63
2023-01-17T05:26:58.238Z,5.25
2023-01-17T05:29:24.771Z,5.20
2023-01-17T05:31:51.326Z,4.43
2023-01-17T05:34:19.402Z,5.30
2023-01-17T05:36:46.004Z,4.90
2023-01-17T05:39:12.526Z,4.55
2023-01-17T05:41:39.127Z,3.80
2023-01-17T05:44:05.755Z,5.88
2023-01-17T05:46:32.454Z,4.95
2023-01-17T05:48:58.987Z,4.28
2023-01-17T05:51:26.998Z,3.15
2023-01-17T05:53:53.584Z,4.72
2023-01-17T05:56:20.541Z,5.25
2023-01-17T05:58:47.100Z,16.50
2023-01-17T06:01:13.662Z,6.53
2023-01-17T06:03:40.188Z,4.40
2023-01-17T06:06:07.343Z,5.22
2023-01-17T06:08:35.334Z,5.97
2023-01-17T06:11:01.908Z,4.65
2023-01-17T06:13:28.675Z,4.18
2023-01-17T06:15:55.377Z,4.32
2023-01-17T06:18:22.143Z,4.40
2023-01-17T06:20:52.644Z,3.72
2023-01-17T06:23:19.158Z,5.38
2023-01-17T06:25:47.930Z,6.93
2023-01-17T06:28:17.064Z,5.93
2023-01-17T06:30:44.287Z,4.97
2023-01-17T06:33:11.203Z,7.03
2023-01-17T06:35:37.782Z,5.82
2023-01-17T06:38:04.524Z,6.82
2023-01-17T06:40:31.257Z,4.50
2023-01-17T06:43:01.306Z,5.72
2023-01-17T06:45:28.150Z,7.22
2023-01-17T06:47:54.895Z,5.85
2023-01-17T06:50:22.019Z,4.07
2023-01-17T06:52:55.240Z,5.30
2023-01-17T06:55:22.601Z,4.32
2023-01-17T06:57:49.820Z,4.82
2023-01-17T07:00:18.953Z,4.85
2023-01-17T07:02:48.531Z,6.70
2023-01-17T07:05:15.235Z,5.85
2023-01-17T07:07:41.752Z,3.50
2023-01-17T07:10:09.424Z,6.50
2023-01-17T07:12:35.974Z,8.05
2023-01-17T07:15:02.606Z,4.72
2023-01-17T07:17:30.716Z,5.63
2023-01-17T07:19:57.521Z,4.82
2023-01-17T07:22:24.053Z,4.65
2023-01-17T07:24:50.712Z,6.05
2023-01-17T07:27:17.259Z,7.20
2023-01-17T07:29:44.004Z,7.35
2023-01-17T07:32:10.575Z,7.03
2023-01-17T07:34:38.770Z,4.72
2023-01-17T07:37:05.318Z,5.65
2023-01-17T07:39:31.999Z,6.95
2023-01-17T07:41:58.518Z,10.27
2023-01-17T07:44:25.122Z,9.40
2023-01-17T07:46:51.706Z,9.07
2023-01-17T07:49:18.315Z,7.03
2023-01-17T07:51:47.810Z,6.60
2023-01-17T07:54:14.490Z,6.88
2023-01-17T07:56:41.010Z,5.20
2023-01-17T07:59:07.828Z,7.72
2023-01-17T08:01:34.696Z,6.20
2023-01-17T08:04:01.379Z,5.53
2023-01-17T08:06:28.724Z,6.88
2023-01-17T08:08:56.722Z,6.75
2023-01-17T08:11:23.232Z,8.63
2023-01-17T08:13:49.828Z,7.40
2023-01-17T08:16:16.526Z,4.65
2023-01-17T08:18:43.230Z,10.27
2023-01-17T08:21:14.545Z,11.45
2023-01-17T08:23:41.259Z,5.05
2023-01-17T08:26:09.360Z,6.50
2023-01-17T08:28:36.005Z,8.90
2023-01-17T08:31:06.843Z,16.88
2023-01-17T08:33:33.486Z,23.58
2023-01-17T08:36:00.207Z,17.40
2023-01-17T08:38:27.099Z,8.20
2023-01-17T08:40:53.767Z,7.03
2023-01-17T08:43:22.085Z,6.13
2023-01-17T08:45:49.981Z,14.73
2023-01-17T08:48:16.615Z,7.05
2023-01-17T08:50:43.139Z,7.63
2023-01-17T08:53:09.776Z,3.88
2023-01-17T08:55:36.416Z,5.90
2023-01-17T08:58:03.013Z,4.32
2023-01-17T09:00:30.961Z,3.95
2023-01-17T09:02:57.540Z,17.33
2023-01-17T09:05:24.194Z,6.35
2023-01-17T09:07:51.094Z,6.90
2023-01-17T09:10:17.693Z,6.47
2023-01-17T09:12:44.314Z,7.57
2023-01-17T09:15:11.420Z,4.75
2023-01-17T09:17:39.593Z,7.10
2023-01-17T09:20:07.894Z,7.97
2023-01-17T09:22:34.582Z,7.88
2023-01-17T09:25:01.231Z,6.50
2023-01-17T09:27:27.854Z,6.20
2023-01-17T09:29:54.527Z,5.57
2023-01-17T09:32:21.121Z,6.13
2023-01-17T09:34:48.986Z,7.85
2023-01-17T09:37:15.642Z,6.45
2023-01-17T09:39:42.312Z,5.75
2023-01-17T09:42:20.648Z,5.80
2023-01-17T09:44:49.000Z,6.05
2023-01-17T09:47:20.271Z,4.85
2023-01-17T09:49:48.827Z,4.93
2023-01-17T09:52:19.650Z,8.63
2023-01-17T09:54:47.746Z,7.15
2023-01-17T09:57:27.348Z,6.45
2023-01-17T10:00:05.054Z,4.00
2023-01-17T10:02:50.989Z,5.45
2023-01-17T10:05:37.011Z,5.78
2023-01-17T10:08:16.462Z,7.80
2023-01-17T10:10:53.117Z,5.13
2023-01-17T10:13:34.350Z,3.85
2023-01-17T10:16:18.732Z,4.10
2023-01-17T10:19:10.347Z,4.93
2023-01-17T10:22:08.701Z,5.47
2023-01-17T10:24:57.219Z,5.13
2023-01-17T10:27:28.767Z,11.43
2023-01-17T10:29:55.485Z,9.32
2023-01-17T10:32:25.046Z,6.13
2023-01-17T10:34:53.171Z,4.53
2023-01-17T10:37:26.215Z,4.72
2023-01-17T10:39:55.903Z,5.25
2023-01-17T10:42:27.783Z,3.55
2023-01-17T10:45:04.337Z,6.72
2023-01-17T10:47:34.157Z,6.57
2023-01-17T10:50:04.155Z,5.10
2023-01-17T10:52:45.089Z,5.32
2023-01-17T10:55:24.895Z,4.15
2023-01-17T10:57:53.764Z,6.60
2023-01-17T11:00:39.751Z,4.90
2023-01-17T11:03:09.647Z,3.80
2023-01-17T11:05:36.341Z,4.72
2023-01-17T11:08:06.394Z,5.18
2023-01-17T11:10:36.197Z,5.32
2023-01-17T11:13:04.806Z,6.18
2023-01-17T11:15:33.568Z,6.10
2023-01-17T11:18:06.964Z,5.05
2023-01-17T11:20:36.341Z,4.10
2023-01-17T11:23:14.607Z,4.95
2023-01-17T11:25:51.918Z,7.47
2023-01-17T11:28:23.668Z,7.25
2023-01-17T11:30:52.978Z,5.53
2023-01-17T11:33:33.984Z,3.95
2023-01-17T11:36:00.865Z,4.72
2023-01-17T11:38:28.922Z,8.13
2023-01-17T11:40:55.734Z,4.95
2023-01-17T11:43:24.137Z,6.13
2023-01-17T11:46:03.973Z,5.28
2023-01-17T11:48:36.301Z,5.13
2023-01-17T11:51:04.612Z,4.13
2023-01-17T11:53:36.847Z,4.10
2023-01-17T11:56:05.643Z,4.38
2023-01-17T11:58:34.655Z,4.25
2023-01-17T12:01:19.093Z,5.20
2023-01-17T12:04:07.043Z,6.28
2023-01-17T12:06:56.767Z,5.97
2023-01-17T12:09:32.107Z,5.22
2023-01-17T12:12:07.252Z,3.65
2023-01-17T12:14:44.166Z,7.03
2023-01-17T12:17:27.654Z,3.38
2023-01-17T12:19:59.596Z,6.03
2023-01-17T12:25:19.057Z,8.27
2023-01-17T12:27:57.420Z,5.60
2023-01-17T12:30:36.401Z,10.80
2023-01-17T12:33:18.731Z,4.88
2023-01-17T12:35:50.095Z,9.70
2023-01-17T12:38:32.156Z,8.93
2023-01-17T12:41:09.827Z,6.97
2023-01-17T12:43:39.952Z,5.30
2023-01-17T12:46:12.004Z,3.60
2023-01-17T12:48:38.766Z,2.63
2023-01-17T12:51:11.377Z,2.80
2023-01-17T12:53:42.170Z,3.22
2023-01-17T12:56:18.709Z,4.32
2023-01-17T12:58:48.786Z,4.63
2023-01-17T13:01:23.601Z,3.35
2023-01-17T13:04:00.333Z,3.63
2023-01-17T13:06:32.381Z,3.03
2023-01-17T13:09:02.175Z,2.95
2023-01-17T13:11:35.616Z,9.35
2023-01-17T13:14:02.250Z,3.47
2023-01-17T13:16:35.279Z,4.40
2023-01-17T13:19:11.188Z,5.32
2023-01-17T13:21:37.963Z,2.97
2023-01-17T13:24:25.551Z,5.95
2023-01-17T13:27:31.190Z,3.38
2023-01-17T13:30:28.700Z,2.78
2023-01-17T13:33:16.451Z,5.03
2023-01-17T13:35:58.308Z,6.38
2023-01-17T13:38:34.503Z,2.75
2023-01-17T13:41:11.326Z,3.97
2023-01-17T13:43:42.341Z,2.38
2023-01-17T13:46:08.957Z,4.97
2023-01-17T13:48:37.100Z,3.38
2023-01-17T13:51:04.645Z,5.38
2023-01-17T13:53:49.036Z,1.83
2023-01-17T13:56:28.104Z,6.30
2023-01-17T13:58:58.833Z,3.42
2023-01-17T14:01:50.515Z,5.07
2023-01-17T14:04:17.202Z,3.97
2023-01-17T14:06:44.806Z,7.15
2023-01-17T14:09:16.400Z,4.45
2023-01-17T14:11:59.439Z,2.38
2023-01-17T14:14:44.187Z,3.47
2023-01-17T14:17:47.485Z,4.93
2023-01-17T14:20:49.659Z,3.63
2023-01-17T14:23:42.382Z,4.85
2023-01-17T14:26:22.155Z,2.85
2023-01-17T14:28:49.128Z,6.05
2023-01-17T14:31:17.479Z,2.72
2023-01-17T14:33:44.154Z,3.63
2023-01-17T14:36:14.544Z,4.57
2023-01-17T14:38:43.137Z,4.22
2023-01-17T14:41:14.102Z,5.50
2023-01-17T14:43:42.817Z,3.03
2023-01-17T14:46:20.951Z,3.25
2023-01-17T14:48:47.650Z,5.82
2023-01-17T14:51:19.073Z,4.65
2023-01-17T14:53:53.446Z,4.53
2023-01-17T14:56:20.263Z,4.38
2023-01-17T14:58:46.833Z,5.05
2023-01-17T15:01:15.508Z,3.13
2023-01-17T15:03:45.875Z,4.70
2023-01-17T15:06:17.135Z,7.47
2023-01-17T15:08:43.974Z,5.75
2023-01-17T15:11:18.153Z,5.43
2023-01-17T15:13:48.111Z,3.00
2023-01-17T15:16:21.170Z,6.22
2023-01-17T15:18:50.309Z,3.67
2023-01-17T15:21:19.509Z,5.78
2023-01-17T15:23:48.290Z,5.03
2023-01-17T15:26:17.776Z,5.85
2023-01-17T15:28:45.042Z,3.78
2023-01-17T15:31:15.340Z,3.38
2023-01-17T15:33:44.411Z,7.45
2023-01-17T15:36:23.721Z,3.33
2023-01-17T15:38:55.487Z,3.95
2023-01-17T15:41:24.890Z,11.60
2023-01-17T15:43:51.439Z,3.70
2023-01-17T15:46:23.611Z,8.90
2023-01-17T15:48:50.371Z,5.65
2023-01-17T15:51:30.234Z,4.20
2023-01-17T15:53:56.890Z,7.18
2023-01-17T15:56:30.212Z,11.93
2023-01-17T15:59:29.649Z,11.45
2023-01-17T16:01:57.679Z,10.57
2023-01-17T16:04:32.135Z,9.55
2023-01-17T16:07:17.357Z,11.10
2023-01-17T16:09:44.496Z,7.45
2023-01-17T16:12:11.393Z,10.75
2023-01-17T16:14:56.407Z,14.27
2023-01-17T16:17:25.013Z,6.97
2023-01-17T16:19:51.589Z,7.90
2023-01-17T16:22:19.556Z,6.65
2023-01-17T16:24:46.169Z,10.40
2023-01-17T16:27:12.750Z,17.70
2023-01-17T16:29:39.332Z,6.82
2023-01-17T16:32:06.321Z,5.95
2023-01-17T16:34:32.931Z,8.75
2023-01-17T16:36:59.614Z,6.70
2023-01-17T16:39:27.564Z,5.25
2023-01-17T16:41:59.964Z,8.70
2023-01-17T16:44:26.585Z,5.43
2023-01-17T16:46:53.347Z,8.05
2023-01-17T16:49:20.035Z,6.60
2023-01-17T16:51:46.891Z,6.90
2023-01-17T16:54:13.789Z,4.35
2023-01-17T16:56:41.975Z,7.95
2023-01-17T16:59:08.596Z,10.10
2023-01-17T17:01:35.208Z,8.57
2023-01-17T17:04:02.131Z,10.35
2023-01-17T17:06:30.053Z,8.80
2023-01-17T17:08:58.811Z,10.68
2023-01-17T17:11:25.465Z,10.07
2023-01-17T17:13:53.501Z,9.73
2023-01-17T17:16:22.480Z,10.50
2023-01-17T17:18:55.227Z,12.20
2023-01-17T17:21:21.978Z,9.13
2023-01-17T17:23:51.399Z,9.02
2023-01-17T17:26:17.997Z,9.93
2023-01-17T17:28:44.502Z,10.85
2023-01-17T17:31:12.607Z,4.80
2023-01-17T17:33:39.216Z,5.47
2023-01-17T17:36:07.895Z,6.30
2023-01-17T17:38:34.478Z,6.90
2023-01-17T17:41:08.308Z,11.48
2023-01-17T17:43:36.463Z,5.93
2023-01-17T17:46:03.139Z,6.72
2023-01-17T17:48:31.090Z,6.80
2023-01-17T17:50:59.733Z,8.93
2023-01-17T17:53:27.441Z,8.50
2023-01-17T17:55:54.024Z,7.85
2023-01-17T17:58:21.135Z,8.32
2023-01-17T18:00:47.745Z,8.30
2023-01-17T18:03:14.522Z,7.32
2023-01-17T18:05:42.736Z,11.80
2023-01-17T18:08:09.287Z,10.00
2023-01-17T18:10:35.868Z,8.27
2023-01-17T18:13:02.597Z,8.55
2023-01-17T18:15:29.187Z,14.60
2023-01-17T18:17:55.821Z,9.18
2023-01-17T18:20:22.749Z,10.50
2023-01-17T18:22:50.722Z,13.55
2023-01-17T18:25:17.221Z,10.45
2023-01-17T18:27:43.826Z,7.38
2023-01-17T18:30:11.303Z,7.95
2023-01-17T18:32:37.962Z,18.70
2023-01-17T18:35:05.190Z,13.95
2023-01-17T18:37:31.781Z,12.82
2023-01-17T18:39:59.990Z,11.90
2023-01-17T18:42:26.627Z,10.65
2023-01-17T18:44:53.148Z,10.40
2023-01-17T18:47:19.920Z,10.77
2023-01-17T18:49:46.459Z,10.80
2023-01-17T18:52:13.203Z,11.50
2023-01-17T18:54:39.720Z,10.00
2023-01-17T18:57:07.755Z,9.13
2023-01-17T18:59:34.389Z,12.48
2023-01-17T19:02:01.077Z,12.70
2023-01-17T19:04:27.612Z,10.00
2023-01-17T19:06:54.196Z,13.90
2023-01-17T19:09:20.791Z,9.23
2023-01-17T19:11:47.864Z,8.32
2023-01-17T19:14:15.868Z,9.40
2023-01-17T19:16:43.138Z,8.88
2023-01-17T19:19:12.375Z,11.18
2023-01-17T19:21:39.254Z,10.20
2023-01-17T19:24:06.347Z,12.63
2023-01-17T19:26:32.949Z,12.93
2023-01-17T19:28:59.841Z,9.73
2023-01-17T19:31:29.958Z,10.02
2023-01-17T19:33:58.478Z,9.68
2023-01-17T19:36:26.752Z,8.35
2023-01-17T19:39:03.942Z,15.82
2023-01-17T19:41:31.505Z,8.88
2023-01-17T19:44:00.520Z,15.57
2023-01-17T19:46:29.345Z,9.38
2023-01-17T19:48:57.391Z,9.27
2023-01-17T19:51:25.175Z,20.65
2023-01-17T19:53:51.864Z,12.50
2023-01-17T19:56:20.182Z,22.10
2023-01-17T19:58:47.730Z,14.90
2023-01-17T20:01:16.598Z,10.63
2023-01-17T20:03:46.492Z,12.25
2023-01-17T20:06:15.615Z,14.00
2023-01-17T20:08:42.250Z,11.82
2023-01-17T20:11:11.593Z,12.70
2023-01-17T20:13:38.087Z,13.82
2023-01-17T20:16:07.200Z,12.38
2023-01-17T20:18:34.654Z,13.65
2023-01-17T20:21:07.516Z,14.27
2023-01-17T20:23:34.559Z,22.95
2023-01-17T20:26:01.658Z,20.60
2023-01-17T20:28:30.058Z,19.55
2023-01-17T20:30:56.972Z,15.35
2023-01-17T20:33:24.228Z,18.75
2023-01-17T20:36:04.860Z,21.52
2023-01-17T20:38:38.439Z,18.27
2023-01-17T20:41:05.192Z,17.98
2023-01-17T20:43:31.787Z,19.48
2023-01-17T20:45:58.344Z,17.73
2023-01-17T20:48:24.984Z,21.80
2023-01-17T20:50:51.553Z,18.38
2023-01-17T20:53:18.254Z,17.30
2023-01-17T20:55:46.220Z,19.92
2023-01-17T20:58:13.056Z,14.35
2023-01-17T21:00:39.618Z,14.98
2023-01-17T21:03:06.284Z,12.73
2023-01-17T21:05:32.853Z,14.68
2023-01-17T21:07:59.751Z,16.92
2023-01-17T21:10:26.299Z,17.30
2023-01-17T21:12:54.227Z,13.77
2023-01-17T21:15:20.790Z,15.57
2023-01-17T21:17:47.543Z,16.10
2023-01-17T21:20:14.305Z,14.23
2023-01-17T21:22:41.062Z,15.50
2023-01-17T21:25:08.497Z,16.00
2023-01-17T21:27:35.189Z,14.18
2023-01-17T21:30:03.590Z,13.15
2023-01-17T21:32:30.171Z,17.77
2023-01-17T21:34:56.731Z,12.20
2023-01-17T21:37:23.587Z,14.57
2023-01-17T21:39:50.157Z,16.23
2023-01-17T21:42:16.835Z,18.80
2023-01-17T21:44:43.408Z,14.20
2023-01-17T21:47:11.424Z,16.20
2023-01-17T21:49:37.958Z,21.10
2023-01-17T21:52:04.791Z,20.65
2023-01-17T21:54:31.784Z,18.58
2023-01-17T21:56:58.398Z,22.17
2023-01-17T21:59:24.981Z,17.75
2023-01-17T22:01:51.561Z,21.50
2023-01-17T22:04:19.448Z,17.40
2023-01-17T22:06:46.096Z,14.60
2023-01-17T22:09:12.651Z,15.27
2023-01-17T22:11:39.207Z,15.32
2023-01-17T22:14:06.256Z,19.63
2023-01-17T22:16:32.902Z,16.45
2023-01-17T22:18:59.487Z,16.50
2023-01-17T22:21:28.769Z,17.35
2023-01-17T22:23:56.945Z,14.65
2023-01-17T22:26:25.951Z,15.52
2023-01-17T22:28:53.299Z,15.35
2023-01-17T22:31:22.251Z,15.77
2023-01-17T22:33:53.555Z,19.58
2023-01-17T22:36:20.783Z,16.23
2023-01-17T22:38:49.166Z,16.02
2023-01-17T22:41:18.005Z,18.15
2023-01-17T22:43:46.360Z,14.85
2023-01-17T22:46:15.164Z,17.00
2023-01-17T22:48:42.290Z,13.25
2023-01-17T22:51:10.862Z,22.95
2023-01-17T22:53:40.131Z,18.23
2023-01-17T22:56:10.595Z,19.80
2023-01-17T22:58:37.197Z,15.90
2023-01-17T23:01:04.859Z,18.98
2023-01-17T23:03:31.866Z,18.67
2023-01-17T23:06:07.882Z,18.83
2023-01-17T23:08:34.828Z,20.10
2023-01-17T23:11:01.621Z,21.20
2023-01-17T23:13:29.607Z,18.30
2023-01-17T23:15:56.240Z,18.42
2023-01-17T23:18:22.933Z,18.95
2023-01-17T23:20:49.496Z,17.23
2023-01-17T23:23:16.125Z,20.42
2023-01-17T23:25:42.696Z,16.85
2023-01-17T23:28:09.517Z,22.77
2023-01-17T23:30:39.012Z,18.52
2023-01-17T23:33:07.520Z,17.85
2023-01-17T23:35:41.506Z,19.02
2023-01-17T23:38:12.012Z,19.92
2023-01-17T23:40:39.455Z,16.55
2023-01-17T23:43:06.715Z,13.63
2023-01-17T23:45:34.535Z,21.45
2023-01-17T23:48:02.788Z,22.13
2023-01-17T23:50:29.321Z,21.80
2023-01-17T23:52:56.245Z,21.15
2023-01-17T23:55:23.132Z,21.27
2023-01-17T23:57:50.428Z,18.67
